createdAt,value
2022-12-16T00:01:14.687Z,95502.00
2022-12-16T00:03:49.045Z,95494.78
2022-12-16T00:06:18.616Z,95498.81
2022-12-16T00:08:47.491Z,95501.50
2022-12-16T00:11:16.031Z,95496.09
2022-12-16T00:13:44.883Z,95494.97
2022-12-16T00:16:18.378Z,95500.09
2022-12-16T00:18:47.161Z,95501.16
2022-12-16T00:21:18.614Z,95494.50
2022-12-16T00:23:47.249Z,95495.00
2022-12-16T00:26:16.315Z,95499.53
2022-12-16T00:28:44.631Z,95497.19
2022-12-16T00:31:14.879Z,95502.50
2022-12-16T00:33:43.634Z,95510.03
2022-12-16T00:36:12.152Z,95504.66
2022-12-16T00:38:40.865Z,95513.78
2022-12-16T00:41:10.702Z,95508.69
2022-12-16T00:43:39.057Z,95503.88
2022-12-16T00:46:07.522Z,95512.97
2022-12-16T00:48:37.352Z,95510.03
2022-12-16T00:51:06.229Z,95503.63
2022-12-16T00:53:35.883Z,95502.00
2022-12-16T00:56:07.209Z,95512.25
2022-12-16T00:58:35.999Z,95507.97
2022-12-16T01:01:06.203Z,95507.22
2022-12-16T01:03:37.027Z,95512.81
2022-12-16T01:06:10.865Z,95516.25
2022-12-16T01:08:39.597Z,95519.44
2022-12-16T01:11:07.950Z,95533.63
2022-12-16T01:13:37.216Z,95529.38
2022-12-16T01:16:06.845Z,95525.81
2022-12-16T01:18:37.165Z,95523.13
2022-12-16T01:21:07.407Z,95517.44
2022-12-16T01:23:36.935Z,95515.66
2022-12-16T01:26:06.108Z,95515.94
2022-12-16T01:28:34.759Z,95526.09
2022-12-16T01:31:03.438Z,95517.50
2022-12-16T01:33:34.227Z,95522.81
2022-12-16T01:36:09.045Z,95531.72
2022-12-16T01:38:37.979Z,95529.00
2022-12-16T01:41:07.245Z,95523.94
2022-12-16T01:43:39.420Z,95520.41
2022-12-16T01:46:16.009Z,95514.28
2022-12-16T01:48:49.729Z,95507.47
2022-12-16T01:51:29.633Z,95514.22
2022-12-16T01:54:05.832Z,95518.00
2022-12-16T01:56:37.861Z,95514.78
2022-12-16T01:59:08.356Z,95516.16
2022-12-16T02:01:36.955Z,95516.91
2022-12-16T02:04:05.696Z,95511.84
2022-12-16T02:06:35.603Z,95515.09
2022-12-16T02:09:11.292Z,95524.72
2022-12-16T02:12:05.625Z,95523.56
2022-12-16T02:15:05.550Z,95531.88
2022-12-16T02:17:45.428Z,95541.75
2022-12-16T02:20:48.482Z,95543.38
2022-12-16T02:23:48.815Z,95559.72
2022-12-16T02:27:18.755Z,95560.75
2022-12-16T02:30:10.099Z,95566.94
2022-12-16T02:32:55.781Z,95583.88
2022-12-16T02:35:36.446Z,95595.38
2022-12-16T02:38:22.517Z,95598.28
2022-12-16T02:41:02.984Z,95600.97
2022-12-16T02:43:55.983Z,95599.91
2022-12-16T02:46:30.123Z,95584.38
2022-12-16T02:49:08.466Z,95575.25
2022-12-16T02:51:39.464Z,95582.50
2022-12-16T02:54:11.006Z,95566.41
2022-12-16T02:57:01.081Z,95568.53
2022-12-16T02:59:43.584Z,95556.22
2022-12-16T03:02:22.829Z,95559.16
2022-12-16T03:04:59.223Z,95560.84
2022-12-16T03:07:34.234Z,95558.97
2022-12-16T03:10:07.767Z,95553.41
2022-12-16T03:12:42.001Z,95566.75
2022-12-16T03:15:13.873Z,95565.13
2022-12-16T03:17:43.691Z,95581.22
2022-12-16T03:20:20.480Z,95582.25
2022-12-16T03:22:53.181Z,95581.75
2022-12-16T03:25:24.644Z,95577.94
2022-12-16T03:28:05.127Z,95589.25
2022-12-16T03:30:40.420Z,95594.03
2022-12-16T03:33:19.901Z,95594.88
2022-12-16T03:35:55.289Z,95594.81
2022-12-16T03:38:26.135Z,95598.06
2022-12-16T03:40:57.290Z,95598.84
2022-12-16T03:43:26.599Z,95604.50
2022-12-16T03:46:02.146Z,95610.66
2022-12-16T03:48:31.055Z,95611.47
2022-12-16T03:51:01.121Z,95611.22
2022-12-16T03:53:30.298Z,95609.66
2022-12-16T03:55:58.921Z,95605.31
2022-12-16T03:58:27.384Z,95603.41
2022-12-16T04:00:56.302Z,95616.53
2022-12-16T04:03:26.661Z,95615.16
2022-12-16T04:05:54.995Z,95617.56
2022-12-16T04:08:24.651Z,95618.44
2022-12-16T04:11:10.856Z,95623.56
2022-12-16T04:13:57.336Z,95621.94
2022-12-16T04:16:46.297Z,95633.16
2022-12-16T04:19:41.519Z,95630.53
2022-12-16T04:22:35.646Z,95630.53
2022-12-16T04:25:10.784Z,95632.09
2022-12-16T04:27:39.425Z,95638.03
2022-12-16T04:30:21.863Z,95643.97
2022-12-16T04:33:14.220Z,95640.69
2022-12-16T04:36:00.304Z,95636.75
2022-12-16T04:38:46.340Z,95633.53
2022-12-16T04:41:33.688Z,95636.19
2022-12-16T04:44:19.926Z,95631.41
2022-12-16T04:47:06.222Z,95631.44
2022-12-16T04:49:52.381Z,95644.53
2022-12-16T04:52:38.428Z,95641.31
2022-12-16T04:55:26.335Z,95640.53
2022-12-16T04:58:15.440Z,95640.00
2022-12-16T05:01:02.955Z,95650.97
2022-12-16T05:03:49.232Z,95650.44
2022-12-16T05:06:35.838Z,95663.78
2022-12-16T05:09:22.224Z,95666.47
2022-12-16T05:12:09.304Z,95677.72
2022-12-16T05:14:56.624Z,95681.78
2022-12-16T05:17:42.631Z,95685.53
2022-12-16T05:20:29.648Z,95688.50
2022-12-16T05:23:15.871Z,95692.25
2022-12-16T05:26:01.920Z,95698.94
2022-12-16T05:28:48.723Z,95703.47
2022-12-16T05:31:36.233Z,95708.31
2022-12-16T05:34:22.298Z,95712.06
2022-12-16T05:37:08.263Z,95715.00
2022-12-16T05:39:54.255Z,95717.97
2022-12-16T05:42:40.352Z,95723.84
2022-12-16T05:45:26.890Z,95727.00
2022-12-16T05:48:13.727Z,95724.59
2022-12-16T05:50:59.894Z,95724.06
2022-12-16T05:53:45.776Z,95740.38
2022-12-16T05:56:31.783Z,95733.91
2022-12-16T05:59:18.074Z,95739.31
2022-12-16T06:02:04.230Z,95737.44
2022-12-16T06:04:51.634Z,95738.00
2022-12-16T06:07:37.540Z,95747.09
2022-12-16T06:10:24.033Z,95742.81
2022-12-16T06:13:10.059Z,95743.91
2022-12-16T06:15:56.088Z,95754.88
2022-12-16T06:18:50.476Z,95758.41
2022-12-16T06:21:52.540Z,95759.22
2022-12-16T06:24:38.428Z,95746.03
2022-12-16T06:27:23.987Z,95753.59
2022-12-16T06:30:11.965Z,95759.00
2022-12-16T06:32:57.710Z,95753.63
2022-12-16T06:35:55.248Z,95763.25
2022-12-16T06:38:42.286Z,95751.47
2022-12-16T06:41:36.414Z,95761.91
2022-12-16T06:44:22.703Z,95771.31
2022-12-16T06:47:09.116Z,95774.53
2022-12-16T06:49:54.871Z,95783.91
2022-12-16T06:52:40.734Z,95785.22
2022-12-16T06:55:27.301Z,95795.16
2022-12-16T06:58:16.888Z,95799.13
2022-12-16T07:01:03.678Z,95813.31
2022-12-16T07:03:50.061Z,95826.97
2022-12-16T07:06:36.031Z,95834.72
2022-12-16T07:09:22.461Z,95846.78
2022-12-16T07:12:09.982Z,95852.91
2022-12-16T07:15:01.150Z,95855.59
2022-12-16T07:17:47.382Z,95863.66
2022-12-16T07:20:33.154Z,95869.28
2022-12-16T07:23:38.095Z,95871.41
2022-12-16T07:26:24.390Z,95881.31
2022-12-16T07:29:14.574Z,95889.09
2022-12-16T07:32:00.312Z,95888.28
2022-12-16T07:34:50.090Z,95896.06
2022-12-16T07:37:36.555Z,95902.22
2022-12-16T07:40:23.656Z,95908.09
2022-12-16T07:43:09.529Z,95907.03
2022-12-16T07:45:56.529Z,95908.88
2022-12-16T07:48:43.535Z,95908.88
2022-12-16T07:51:31.615Z,95916.94
2022-12-16T07:54:17.305Z,95918.81
2022-12-16T07:57:03.347Z,95914.78
2022-12-16T07:59:49.233Z,95929.78
2022-12-16T08:02:36.968Z,95933.28
2022-12-16T08:05:23.603Z,95936.75
2022-12-16T08:08:09.524Z,95945.06
2022-12-16T08:10:55.480Z,95941.31
2022-12-16T08:13:41.426Z,95938.63
2022-12-16T08:16:27.422Z,95947.16
2022-12-16T08:19:14.797Z,95956.56
2022-12-16T08:22:00.839Z,95959.75
2022-12-16T08:24:51.532Z,95967.50
2022-12-16T08:27:39.133Z,95964.78
2022-12-16T08:30:26.888Z,95970.91
2022-12-16T08:33:18.870Z,95963.66
2022-12-16T08:36:07.224Z,95963.66
2022-12-16T08:38:55.974Z,95968.69
2022-12-16T08:41:42.453Z,95971.13
2022-12-16T08:44:28.525Z,95969.81
2022-12-16T08:47:14.814Z,95972.16
2022-12-16T08:50:02.385Z,95972.13
2022-12-16T08:52:50.137Z,95980.69
2022-12-16T08:55:36.511Z,95985.75
2022-12-16T08:58:22.524Z,95973.03
2022-12-16T09:01:08.568Z,95985.91
2022-12-16T09:03:56.263Z,95986.16
2022-12-16T09:06:42.257Z,95994.53
2022-12-16T09:09:29.934Z,96008.09
2022-12-16T09:12:15.854Z,96006.44
2022-12-16T09:15:01.831Z,96010.03
2022-12-16T09:17:48.107Z,96010.81
2022-12-16T09:20:42.899Z,96014.84
2022-12-16T09:23:29.209Z,96033.38
2022-12-16T09:26:16.526Z,96044.59
2022-12-16T09:29:02.631Z,96054.81
2022-12-16T09:31:48.773Z,96052.22
2022-12-16T09:34:34.751Z,96058.44
2022-12-16T09:37:20.571Z,96062.16
2022-12-16T09:40:06.910Z,96067.97
2022-12-16T09:43:07.971Z,96057.81
2022-12-16T09:46:04.485Z,96069.59
2022-12-16T09:49:07.314Z,96054.03
2022-12-16T09:51:55.824Z,96060.53
2022-12-16T09:54:47.725Z,96065.88
2022-12-16T09:57:34.831Z,96060.41
2022-12-16T10:00:27.034Z,96066.28
2022-12-16T10:03:16.363Z,96064.69
2022-12-16T10:06:11.741Z,96067.66
2022-12-16T10:09:10.027Z,96070.69
2022-12-16T10:12:10.005Z,96076.84
2022-12-16T10:15:09.783Z,96074.91
2022-12-16T10:18:04.013Z,96073.03
2022-12-16T10:21:01.532Z,96073.75
2022-12-16T10:23:54.458Z,96077.00
2022-12-16T10:27:03.885Z,96080.47
2022-12-16T10:29:57.877Z,96084.25
2022-12-16T10:32:51.900Z,96078.84
2022-12-16T10:35:46.562Z,96088.28
2022-12-16T10:38:41.504Z,96093.09
2022-12-16T10:41:30.473Z,96092.50
2022-12-16T10:44:18.978Z,96092.53
2022-12-16T10:47:05.013Z,96096.91
2022-12-16T10:49:55.071Z,96097.72
2022-12-16T10:52:42.559Z,96096.56
2022-12-16T10:55:47.252Z,96099.22
2022-12-16T10:58:48.365Z,96102.72
2022-12-16T11:01:42.012Z,96103.63
2022-12-16T11:04:55.826Z,96095.88
2022-12-16T11:07:52.099Z,96114.69
2022-12-16T11:10:52.314Z,96117.59
2022-12-16T11:13:43.524Z,96111.97
2022-12-16T11:16:41.771Z,96114.63
2022-12-16T11:19:39.969Z,96125.88
2022-12-16T11:22:33.028Z,96125.19
2022-12-16T11:25:34.662Z,96128.47
2022-12-16T11:28:30.065Z,96125.44
2022-12-16T11:31:21.067Z,96125.31
2022-12-16T11:34:09.183Z,96127.75
2022-12-16T11:36:57.814Z,96129.97
2022-12-16T11:39:47.639Z,96121.69
2022-12-16T11:42:41.715Z,96114.97
2022-12-16T11:45:35.999Z,96117.34
2022-12-16T11:48:35.806Z,96120.03
2022-12-16T11:51:24.157Z,96122.16
2022-12-16T11:54:17.759Z,96122.22
2022-12-16T11:57:05.070Z,96131.88
2022-12-16T12:00:00.639Z,96132.66
2022-12-16T12:02:56.213Z,96137.50
2022-12-16T12:05:51.559Z,96136.69
2022-12-16T12:08:49.613Z,96149.13
2022-12-16T12:11:41.744Z,96142.94
2022-12-16T12:14:44.130Z,96129.75
2022-12-16T12:17:49.544Z,96142.59
2022-12-16T12:21:02.476Z,96150.72
2022-12-16T12:24:05.393Z,96157.75
2022-12-16T12:26:53.989Z,96149.91
2022-12-16T12:29:57.705Z,96154.22
2022-12-16T12:32:56.014Z,96143.75
2022-12-16T12:36:08.214Z,96153.13
2022-12-16T12:39:10.792Z,96151.28
2022-12-16T12:42:16.918Z,96158.25
2022-12-16T12:45:18.300Z,96168.47
2022-12-16T12:48:16.092Z,96162.31
2022-12-16T12:51:15.570Z,96170.66
2022-12-16T12:54:13.328Z,96169.03
2022-12-16T12:57:07.716Z,96167.16
2022-12-16T13:00:09.305Z,96170.69
2022-12-16T13:03:21.200Z,96182.22
2022-12-16T13:06:08.899Z,96184.91
2022-12-16T13:09:15.746Z,96190.81
2022-12-16T13:12:47.239Z,96197.53
2022-12-16T13:15:54.146Z,96195.88
2022-12-16T13:18:48.889Z,96199.91
2022-12-16T13:22:06.043Z,96206.06
2022-12-16T13:24:58.695Z,96214.69
2022-12-16T13:27:48.136Z,96217.38
2022-12-16T13:30:42.707Z,96211.19
2022-12-16T13:33:48.683Z,96214.44
2022-12-16T13:36:37.530Z,96221.66
2022-12-16T13:39:43.914Z,96214.41
2022-12-16T13:43:08.895Z,96219.19
2022-12-16T13:45:58.068Z,96234.25
2022-12-16T13:49:01.146Z,96242.31
2022-12-16T13:52:19.361Z,96251.97
2022-12-16T13:55:24.797Z,96252.81
2022-12-16T13:58:16.301Z,96248.50
2022-12-16T14:01:08.941Z,96253.31
2022-12-16T14:04:04.190Z,96262.19
2022-12-16T14:06:54.008Z,96261.41
2022-12-16T14:09:57.126Z,96265.94
2022-12-16T14:13:04.711Z,96270.00
2022-12-16T14:16:04.431Z,96278.31
2022-12-16T14:19:06.857Z,96282.06
2022-12-16T14:22:03.975Z,96290.09
2022-12-16T14:24:50.499Z,96298.44
2022-12-16T14:27:40.628Z,96308.91
2022-12-16T14:30:37.962Z,96305.41
2022-12-16T14:33:47.553Z,96316.13
2022-12-16T14:36:47.569Z,96309.69
2022-12-16T14:39:40.333Z,96312.66
2022-12-16T14:42:38.334Z,96320.16
2022-12-16T14:45:40.242Z,96316.91
2022-12-16T14:48:45.996Z,96324.44
2022-12-16T14:51:48.251Z,96334.91
2022-12-16T14:54:41.627Z,96336.78
2022-12-16T14:57:34.871Z,96339.16
2022-12-16T15:00:31.616Z,96341.06
2022-12-16T15:03:26.316Z,96340.00
2022-12-16T15:06:19.112Z,96346.16
2022-12-16T15:09:14.818Z,96351.81
2022-12-16T15:12:03.354Z,96355.56
2022-12-16T15:14:53.498Z,96358.00
2022-12-16T15:17:41.781Z,96362.53
2022-12-16T15:20:39.360Z,96362.25
2022-12-16T15:23:36.682Z,96366.00
2022-12-16T15:26:25.368Z,96377.28
2022-12-16T15:29:11.891Z,96379.97
2022-12-16T15:32:03.283Z,96383.72
2022-12-16T15:35:07.100Z,96386.66
2022-12-16T15:38:03.610Z,96393.38
2022-12-16T15:40:54.348Z,96403.56
2022-12-16T15:43:48.800Z,96401.13
2022-12-16T15:46:39.957Z,96398.41
2022-12-16T15:49:43.127Z,96404.03
2022-12-16T15:52:53.441Z,96408.59
2022-12-16T15:55:49.695Z,96416.41
2022-12-16T15:58:43.320Z,96422.75
2022-12-16T16:01:34.087Z,96426.25
2022-12-16T16:04:20.804Z,96437.00
2022-12-16T16:07:08.864Z,96445.56
2022-12-16T16:10:01.016Z,96442.09
2022-12-16T16:12:46.944Z,96453.06
2022-12-16T16:15:33.866Z,96447.69
2022-12-16T16:18:24.273Z,96456.00
2022-12-16T16:21:11.223Z,96461.59
2022-12-16T16:23:57.090Z,96470.41
2022-12-16T16:26:46.988Z,96471.53
2022-12-16T16:29:33.701Z,96475.19
2022-12-16T16:32:21.031Z,96483.16
2022-12-16T16:35:08.314Z,96485.94
2022-12-16T16:37:54.642Z,96488.34
2022-12-16T16:40:50.083Z,96482.16
2022-12-16T16:43:36.889Z,96489.38
2022-12-16T16:46:42.898Z,96497.47
2022-12-16T16:49:36.071Z,96511.63
2022-12-16T16:52:23.443Z,96510.81
2022-12-16T16:55:09.438Z,96499.31
2022-12-16T16:57:57.103Z,96498.00
2022-12-16T17:00:43.595Z,96510.00
2022-12-16T17:03:29.588Z,96512.84
2022-12-16T17:06:15.846Z,96516.66
2022-12-16T17:09:02.953Z,96528.13
2022-12-16T17:11:50.468Z,96523.03
2022-12-16T17:14:39.259Z,96537.00
2022-12-16T17:17:25.858Z,96532.09
2022-12-16T17:20:11.796Z,96535.19
2022-12-16T17:22:59.014Z,96540.88
2022-12-16T17:25:46.109Z,96544.88
2022-12-16T17:28:32.086Z,96556.72
2022-12-16T17:31:18.373Z,96552.72
2022-12-16T17:34:04.436Z,96557.72
2022-12-16T17:36:46.958Z,96564.41
2022-12-16T17:39:32.660Z,96558.25
2022-12-16T17:42:19.713Z,96573.91
2022-12-16T17:45:05.566Z,96580.66
2022-12-16T17:47:51.180Z,96583.38
2022-12-16T17:50:37.011Z,96587.34
2022-12-16T17:53:23.143Z,96588.28
2022-12-16T17:56:09.501Z,96586.69
2022-12-16T17:58:58.328Z,96593.09
2022-12-16T18:01:45.084Z,96587.84
2022-12-16T18:04:31.479Z,96591.31
2022-12-16T18:07:17.771Z,96590.38
2022-12-16T18:10:03.998Z,96598.38
2022-12-16T18:12:51.733Z,96596.28
2022-12-16T18:15:39.010Z,96596.03
2022-12-16T18:18:25.317Z,96596.34
2022-12-16T18:21:11.308Z,96608.63
2022-12-16T18:23:57.414Z,96607.63
2022-12-16T18:26:43.360Z,96611.31
2022-12-16T18:29:29.468Z,96624.16
2022-12-16T18:32:16.765Z,96625.19
2022-12-16T18:35:03.020Z,96628.97
2022-12-16T18:38:00.518Z,96634.88
2022-12-16T18:41:01.502Z,96633.78
2022-12-16T18:43:46.762Z,96632.69
2022-12-16T18:46:33.307Z,96636.91
2022-12-16T18:49:20.836Z,96638.91
2022-12-16T18:52:06.793Z,96644.81
2022-12-16T18:54:52.756Z,96649.94
2022-12-16T18:57:39.936Z,96652.22
2022-12-16T19:00:27.962Z,96656.63
2022-12-16T19:03:13.756Z,96661.88
2022-12-16T19:06:01.484Z,96655.09
2022-12-16T19:08:48.431Z,96665.28
2022-12-16T19:11:34.364Z,96670.59
2022-12-16T19:14:35.471Z,96677.63
2022-12-16T19:17:21.579Z,96686.47
2022-12-16T19:20:07.758Z,96686.28
2022-12-16T19:22:56.536Z,96684.84
2022-12-16T19:25:42.312Z,96685.00
2022-12-16T19:28:32.044Z,96697.59
2022-12-16T19:31:18.184Z,96699.91
2022-12-16T19:34:04.225Z,96710.53
2022-12-16T19:36:50.487Z,96705.38
2022-12-16T19:39:37.734Z,96706.44
2022-12-16T19:42:23.931Z,96707.56
2022-12-16T19:45:10.167Z,96711.88
2022-12-16T19:47:56.394Z,96713.59
2022-12-16T19:50:42.137Z,96711.88
2022-12-16T19:53:28.237Z,96711.53
2022-12-16T19:56:17.461Z,96721.03
2022-12-16T19:59:03.533Z,96717.41
2022-12-16T20:01:50.309Z,96724.75
2022-12-16T20:04:38.007Z,96727.66
2022-12-16T20:07:24.254Z,96731.59
2022-12-16T20:10:10.230Z,96734.81
2022-12-16T20:12:57.391Z,96739.38
2022-12-16T20:15:42.480Z,96739.50
2022-12-16T20:18:36.854Z,96752.03
2022-12-16T20:21:23.777Z,96757.03
2022-12-16T20:24:09.745Z,96763.63
2022-12-16T20:26:55.734Z,96765.25
2022-12-16T20:29:43.087Z,96765.47
2022-12-16T20:32:29.118Z,96772.31
2022-12-16T20:35:14.972Z,96775.38
2022-12-16T20:38:03.246Z,96781.16
2022-12-16T20:40:49.084Z,96795.81
2022-12-16T20:43:35.010Z,96795.00
2022-12-16T20:46:22.511Z,96799.00
2022-12-16T20:49:09.209Z,96800.94
2022-12-16T20:51:56.277Z,96812.75
2022-12-16T20:54:42.489Z,96810.41
2022-12-16T20:57:29.093Z,96810.50
2022-12-16T21:00:15.331Z,96809.75
2022-12-16T21:03:02.719Z,96811.88
2022-12-16T21:05:49.142Z,96814.94
2022-12-16T21:08:35.187Z,96823.72
2022-12-16T21:11:21.501Z,96833.03
2022-12-16T21:14:09.042Z,96833.13
2022-12-16T21:16:56.047Z,96840.25
2022-12-16T21:19:43.494Z,96844.81
2022-12-16T21:22:29.565Z,96852.13
2022-12-16T21:25:19.749Z,96849.91
2022-12-16T21:28:09.610Z,96861.81
2022-12-16T21:30:56.075Z,96876.03
2022-12-16T21:33:42.547Z,96869.13
2022-12-16T21:36:30.164Z,96867.41
2022-12-16T21:39:16.105Z,96874.09
2022-12-16T21:42:02.186Z,96877.66
2022-12-16T21:44:47.300Z,96877.88
2022-12-16T21:47:33.242Z,96878.03
2022-12-16T21:50:19.257Z,96879.19
2022-12-16T21:53:04.126Z,96884.78
2022-12-16T21:55:46.896Z,96896.78
2022-12-16T21:58:32.602Z,96893.63
2022-12-16T22:01:18.990Z,96908.00
2022-12-16T22:04:05.496Z,96904.41
2022-12-16T22:06:51.464Z,96915.84
2022-12-16T22:09:39.340Z,96915.69
2022-12-16T22:12:25.856Z,96920.13
2022-12-16T22:15:11.850Z,96933.84
2022-12-16T22:17:58.965Z,96923.69
2022-12-16T22:20:45.292Z,96933.59
2022-12-16T22:23:31.336Z,96940.31
2022-12-16T22:26:20.436Z,96940.94
2022-12-16T22:29:06.680Z,96944.69
2022-12-16T22:31:52.819Z,96953.97
2022-12-16T22:34:42.375Z,96957.44
2022-12-16T22:37:28.505Z,96956.66
2022-12-16T22:40:14.552Z,96963.19
2022-12-16T22:43:01.692Z,96973.88
2022-12-16T22:45:48.193Z,96972.03
2022-12-16T22:48:34.139Z,96967.41
2022-12-16T22:51:20.650Z,96961.56
2022-12-16T22:54:08.007Z,96973.47
2022-12-16T22:56:56.475Z,96969.97
2022-12-16T22:59:44.110Z,96979.28
2022-12-16T23:02:30.126Z,96987.41
2022-12-16T23:05:16.144Z,96987.34
2022-12-16T23:08:02.257Z,96987.66
2022-12-16T23:10:48.258Z,96999.41
2022-12-16T23:13:34.157Z,96992.28
2022-12-16T23:16:21.215Z,96997.72
2022-12-16T23:19:07.186Z,97006.69
2022-12-16T23:21:53.162Z,96998.56
2022-12-16T23:24:39.713Z,97002.78
2022-12-16T23:27:27.080Z,97003.25
2022-12-16T23:30:13.090Z,97007.91
2022-12-16T23:33:00.291Z,97005.81
2022-12-16T23:35:46.298Z,96999.66
2022-12-16T23:38:31.960Z,97012.19
2022-12-16T23:41:18.485Z,97001.75
2022-12-16T23:44:04.156Z,97002.06
2022-12-16T23:46:50.596Z,97013.13
2022-12-16T23:49:37.733Z,97011.53
2022-12-16T23:52:23.814Z,97004.91
2022-12-16T23:55:09.710Z,97013.50
2022-12-16T23:57:56.164Z,97022.81
